Time;durP1;ratioP1;P1;durP2;ratioP2;P2;SDS_P1;SDS_P2;PMS_P1;PMS_P2;Temp;Humidity;BMP_temperature;BMP_pressure;BME280_temperature;BME280_humidity;BME280_pressure;Samples;Min_cycle;Max_cycle;Signal;HPM_P1;HPM_P2
2022/11/24 00:01:20;;;;;;;3.92;1.35;;;9.20;99.90;;;;;;5059907;28;20024;-71
2022/11/24 00:03:52;;;;;;;9.52;1.73;;;9.20;99.90;;;;;;5077145;28;20110;-71
2022/11/24 00:06:18;;;;;;;7.13;2.35;;;9.20;99.90;;;;;;5077959;28;20037;-73
2022/11/24 00:08:45;;;;;;;5.47;1.83;;;9.20;99.90;;;;;;5077608;28;20044;-71
2022/11/24 00:11:20;;;;;;;8.23;1.90;;;9.20;99.90;;;;;;5077506;28;20494;-71
2022/11/24 00:13:46;;;;;;;4.47;1.63;;;9.20;99.90;;;;;;5077456;28;20086;-71
2022/11/24 00:16:16;;;;;;;5.93;1.70;;;9.20;99.90;;;;;;5059750;28;20032;-72
2022/11/24 00:18:44;;;;;;;9.25;1.35;;;9.20;99.90;;;;;;5078096;28;20056;-71
2022/11/24 00:21:10;;;;;;;8.20;1.80;;;9.10;99.90;;;;;;5059800;28;20032;-72
2022/11/24 00:23:36;;;;;;;8.13;1.88;;;9.20;99.90;;;;;;5059984;28;20063;-72
2022/11/24 00:26:08;;;;;;;9.52;2.90;;;9.10;99.90;;;;;;5077264;28;20103;-71
2022/11/24 00:28:35;;;;;;;7.75;1.60;;;9.20;99.90;;;;;;5077275;28;20051;-71
2022/11/24 00:31:01;;;;;;;7.80;1.60;;;9.10;99.90;;;;;;5060345;28;20025;-69
2022/11/24 00:33:27;;;;;;;8.15;1.60;;;9.10;99.90;;;;;;5077560;28;20037;-72
2022/11/24 00:35:58;;;;;;;4.82;1.60;;;9.10;99.90;;;;;;5077320;28;20086;-71
2022/11/24 00:38:24;;;;;;;4.03;1.30;;;9.10;99.90;;;;;;5077324;28;20028;-72
2022/11/24 00:40:50;;;;;;;5.18;1.88;;;9.00;99.90;;;;;;5077315;28;20056;-70
2022/11/24 00:43:17;;;;;;;6.80;1.42;;;9.00;99.90;;;;;;5077022;28;20021;-71
2022/11/24 00:45:43;;;;;;;8.65;2.03;;;8.90;99.90;;;;;;5077723;28;20110;-70
2022/11/24 00:48:08;;;;;;;6.78;1.70;;;9.00;99.90;;;;;;5055880;28;20466;-71
2022/11/24 00:50:34;;;;;;;8.13;2.17;;;8.90;99.90;;;;;;5074114;28;20081;-71
2022/11/24 00:53:00;;;;;;;6.40;1.98;;;8.90;99.90;;;;;;5073990;28;20154;-72
2022/11/24 00:55:26;;;;;;;5.63;1.83;;;8.90;99.90;;;;;;5074070;28;20362;-70
2022/11/24 00:57:54;;;;;;;8.32;1.92;;;8.80;99.90;;;;;;5074674;28;20038;-73
2022/11/24 01:00:20;;;;;;;7.10;1.70;;;8.80;99.90;;;;;;5073611;28;20040;-72
2022/11/24 01:02:46;;;;;;;5.15;1.80;;;8.80;99.90;;;;;;5056192;28;20359;-72
2022/11/24 01:05:11;;;;;;;8.20;2.03;;;8.80;99.90;;;;;;5072749;28;20044;-72
2022/11/24 01:07:37;;;;;;;4.32;1.55;;;8.80;99.90;;;;;;5056121;28;20403;-73
2022/11/24 01:10:04;;;;;;;4.70;1.58;;;8.70;99.90;;;;;;5073847;28;20032;-73
2022/11/24 01:12:29;;;;;;;4.15;1.52;;;8.70;99.90;;;;;;5073640;28;20462;-72
2022/11/24 01:14:56;;;;;;;10.35;1.65;;;8.70;99.90;;;;;;5055960;28;20032;-72
2022/11/24 01:17:22;;;;;;;11.00;1.95;;;8.70;99.90;;;;;;5073649;28;20037;-71
2022/11/24 01:19:48;;;;;;;5.97;1.90;;;8.70;99.90;;;;;;5073592;28;20043;-71
2022/11/24 01:22:14;;;;;;;10.55;2.20;;;8.70;99.90;;;;;;5073330;28;20463;-71
2022/11/24 01:24:40;;;;;;;6.20;2.00;;;8.70;99.90;;;;;;5073811;28;20025;-70
2022/11/24 01:27:06;;;;;;;4.38;1.63;;;8.80;99.90;;;;;;5073357;28;20032;-73
2022/11/24 01:29:32;;;;;;;6.80;1.88;;;8.80;99.90;;;;;;5072264;28;20375;-72
2022/11/24 01:31:57;;;;;;;6.32;1.42;;;8.80;99.90;;;;;;5073451;28;20040;-72
2022/11/24 01:34:23;;;;;;;5.63;1.58;;;8.80;99.90;;;;;;5073150;28;20418;-70
2022/11/24 01:36:49;;;;;;;9.40;1.80;;;8.80;99.90;;;;;;5073725;28;20048;-71
2022/11/24 01:39:15;;;;;;;5.03;2.10;;;8.70;99.90;;;;;;5073388;28;20422;-71
2022/11/24 01:41:40;;;;;;;4.78;1.50;;;8.80;99.90;;;;;;5073179;28;20342;-72
2022/11/24 01:44:32;;;;;;;6.28;2.20;;;8.80;99.90;;;;;;5072079;28;20052;-72
2022/11/24 01:47:04;;;;;;;12.55;2.00;;;8.80;99.90;;;;;;5068562;28;20060;-72
2022/11/24 01:49:50;;;;;;;8.48;2.33;;;8.80;99.90;;;;;;5072951;28;20548;-72
2022/11/24 01:52:26;;;;;;;5.53;1.73;;;8.80;99.90;;;;;;5072822;28;20025;-72
2022/11/24 01:54:56;;;;;;;6.30;2.33;;;8.80;99.90;;;;;;5073665;28;20016;-73
2022/11/24 01:57:31;;;;;;;8.77;1.77;;;8.70;99.90;;;;;;5073062;28;20033;-73
2022/11/24 02:00:07;;;;;;;10.98;2.25;;;8.70;99.90;;;;;;5072409;28;20032;-73
2022/11/24 02:02:33;;;;;;;5.88;2.10;;;8.70;99.90;;;;;;5072655;28;20136;-72
2022/11/24 02:05:03;;;;;;;9.85;2.25;;;8.70;99.90;;;;;;5071910;28;20033;-72
2022/11/24 02:07:30;;;;;;;5.65;1.85;;;8.70;99.90;;;;;;5072569;28;20107;-72
2022/11/24 02:10:01;;;;;;;5.38;2.25;;;8.70;99.90;;;;;;5072982;28;20082;-72
2022/11/24 02:12:27;;;;;;;4.28;1.70;;;8.70;99.90;;;;;;5072586;28;20031;-71
2022/11/24 02:14:54;;;;;;;7.80;2.50;;;8.70;99.90;;;;;;5072291;28;20435;-71
2022/11/24 02:17:21;;;;;;;35.72;16.30;;;8.70;99.90;;;;;;5072328;28;20032;-72
2022/11/24 02:20:00;;;;;;;23.65;11.02;;;8.80;99.90;;;;;;5072515;28;20098;-71
2022/11/24 02:22:39;;;;;;;9.10;2.15;;;8.70;99.90;;;;;;5072172;28;20048;-72
2022/11/24 02:25:26;;;;;;;10.20;2.47;;;8.70;99.90;;;;;;5072953;28;20021;-72
2022/11/24 02:27:55;;;;;;;6.30;2.00;;;8.80;99.90;;;;;;5072428;28;20056;-72
2022/11/24 02:30:20;;;;;;;;;;;8.80;99.90;;;;;;5072592;28;20122;-73
2022/11/24 02:32:46;;;;;;;7.43;2.20;;;8.80;99.90;;;;;;5072210;28;19922;-72
2022/11/24 02:35:12;;;;;;;5.68;1.90;;;8.80;99.90;;;;;;5075463;28;20036;-71
2022/11/24 02:37:38;;;;;;;7.85;2.08;;;8.90;99.90;;;;;;5092328;28;20047;-72
2022/11/24 02:40:04;;;;;;;13.75;2.75;;;8.90;99.90;;;;;;5074853;28;20442;-71
2022/11/24 02:42:37;;;;;;;6.97;2.30;;;8.80;99.90;;;;;;5092033;28;20028;-72
2022/11/24 02:45:03;;;;;;;7.25;2.10;;;8.80;99.90;;;;;;5091836;28;20048;-71
2022/11/24 02:47:29;;;;;;;8.05;2.10;;;8.90;99.90;;;;;;5092091;28;20086;-72
2022/11/24 02:49:55;;;;;;;9.82;1.63;;;8.90;99.90;;;;;;5091896;28;20040;-71
2022/11/24 02:52:20;;;;;;;9.10;2.08;;;8.90;99.90;;;;;;5074379;28;20020;-71
2022/11/24 02:54:46;;;;;;;9.18;2.08;;;9.00;99.90;;;;;;5092722;28;20099;-73
2022/11/24 02:57:11;;;;;;;8.02;2.10;;;9.10;99.90;;;;;;5091859;28;20051;-72
2022/11/24 02:59:37;;;;;;;19.33;2.33;;;9.10;99.90;;;;;;5092016;28;20421;-72
2022/11/24 03:02:03;;;;;;;10.85;2.42;;;9.10;99.90;;;;;;5091756;28;20032;-73
2022/11/24 03:04:29;;;;;;;3.05;1.77;;;9.10;99.90;;;;;;5092224;28;20115;-72
2022/11/24 03:06:55;;;;;;;11.02;2.10;;;9.00;99.90;;;;;;5092143;28;20355;-71
2022/11/24 03:09:20;;;;;;;8.07;1.77;;;9.10;99.90;;;;;;5091691;28;20024;-72
2022/11/24 03:11:46;;;;;;;8.18;1.80;;;9.10;99.90;;;;;;5091118;28;20083;-72
2022/11/24 03:14:12;;;;;;;7.38;1.88;;;9.20;99.90;;;;;;5091456;28;20498;-72
2022/11/24 03:16:37;;;;;;;8.93;2.22;;;9.20;99.90;;;;;;5091702;28;20040;-72
2022/11/24 03:19:03;;;;;;;9.85;2.50;;;9.20;99.90;;;;;;5092068;28;20039;-72
2022/11/24 03:21:29;;;;;;;4.80;1.90;;;9.20;99.90;;;;;;5073632;28;20092;-71
2022/11/24 03:23:55;;;;;;;9.60;1.98;;;9.20;99.90;;;;;;5091632;28;20461;-72
2022/11/24 03:26:23;;;;;;;13.82;2.30;;;9.20;99.90;;;;;;5073782;28;20028;-71
2022/11/24 03:28:48;;;;;;;12.10;2.05;;;9.20;99.90;;;;;;5073755;28;20093;-71
2022/11/24 03:31:15;;;;;;;8.95;2.03;;;9.20;99.90;;;;;;5091347;28;20056;-71
2022/11/24 03:33:40;;;;;;;7.97;2.03;;;9.20;99.90;;;;;;5092147;28;20028;-72
2022/11/24 03:36:07;;;;;;;10.85;2.00;;;9.20;99.90;;;;;;5091610;28;20043;-71
2022/11/24 03:38:33;;;;;;;5.45;1.98;;;9.20;99.90;;;;;;5073432;28;20086;-71
2022/11/24 03:40:58;;;;;;;7.13;1.98;;;9.20;99.90;;;;;;5091409;28;20079;-72
2022/11/24 03:43:24;;;;;;;5.70;1.73;;;9.20;99.90;;;;;;5073304;28;20345;-72
2022/11/24 03:45:50;;;;;;;12.93;2.55;;;9.20;99.90;;;;;;5091698;28;20024;-70
2022/11/24 03:48:19;;;;;;;7.95;2.00;;;9.20;99.90;;;;;;5091295;28;20020;-70
2022/11/24 03:50:56;;;;;;;10.15;2.20;;;9.20;99.90;;;;;;5073256;28;20393;-71
2022/11/24 03:53:22;;;;;;;8.35;2.17;;;9.20;99.90;;;;;;5073376;28;20020;-70
2022/11/24 03:55:48;;;;;;;8.57;2.33;;;9.20;99.90;;;;;;5091314;28;20284;-71
2022/11/24 03:58:14;;;;;;;10.30;2.90;;;9.20;99.90;;;;;;5091193;28;20024;-71
2022/11/24 04:00:40;;;;;;;5.70;1.77;;;9.20;99.90;;;;;;5073744;28;20350;-71
2022/11/24 04:03:06;;;;;;;7.70;2.25;;;9.30;99.90;;;;;;5091423;28;20397;-71
2022/11/24 04:05:32;;;;;;;7.93;2.10;;;9.20;99.90;;;;;;5091196;28;20340;-71
2022/11/24 04:08:01;;;;;;;11.60;2.50;;;9.30;99.90;;;;;;5091401;28;20039;-71
2022/11/24 04:10:27;;;;;;;9.50;2.30;;;9.20;99.90;;;;;;5091021;28;20055;-72
2022/11/24 04:12:53;;;;;;;9.25;2.10;;;9.20;99.90;;;;;;5091880;28;20063;-70
2022/11/24 04:15:19;;;;;;;12.35;2.38;;;9.20;99.90;;;;;;5091122;28;20145;-72
2022/11/24 04:17:46;;;;;;;8.13;1.90;;;9.30;99.90;;;;;;5091004;28;20081;-70
2022/11/24 04:20:12;;;;;;;9.98;2.13;;;9.30;99.90;;;;;;5091082;28;20044;-73
2022/11/24 04:22:38;;;;;;;6.00;2.30;;;9.30;99.90;;;;;;5093327;28;20480;-70
2022/11/24 04:25:05;;;;;;;12.80;2.55;;;9.20;99.90;;;;;;5077195;28;20115;-71
2022/11/24 04:27:35;;;;;;;8.13;2.13;;;9.20;99.90;;;;;;5094917;28;20044;-71
2022/11/24 04:30:01;;;;;;;9.02;2.40;;;9.20;99.90;;;;;;5094721;28;20123;-71
2022/11/24 04:32:27;;;;;;;8.65;2.60;;;9.20;99.90;;;;;;5094768;28;20463;-70
2022/11/24 04:34:52;;;;;;;10.68;2.25;;;9.20;99.90;;;;;;5094899;28;20039;-71
2022/11/24 04:37:18;;;;;;;9.55;3.08;;;9.20;99.90;;;;;;5076736;28;20028;-72
2022/11/24 04:39:45;;;;;;;33.33;14.05;;;9.30;99.90;;;;;;5077099;28;20112;-70
2022/11/24 04:42:11;;;;;;;15.93;5.55;;;9.30;99.90;;;;;;5076496;28;20050;-71
2022/11/24 04:44:37;;;;;;;12.15;3.00;;;9.50;99.90;;;;;;5094070;28;20089;-71
2022/11/24 04:47:03;;;;;;;10.02;2.00;;;9.30;99.90;;;;;;5094419;28;20109;-71
2022/11/24 04:49:29;;;;;;;8.43;2.00;;;9.30;99.90;;;;;;5076295;28;20044;-71
2022/11/24 04:51:55;;;;;;;6.00;2.20;;;9.40;99.90;;;;;;5094778;28;20020;-71
2022/11/24 04:54:21;;;;;;;14.75;2.38;;;9.50;99.90;;;;;;5094266;28;20020;-71
2022/11/24 04:56:50;;;;;;;8.95;1.95;;;9.40;99.90;;;;;;5094464;28;20122;-70
2022/11/24 04:59:16;;;;;;;9.77;2.33;;;9.40;99.90;;;;;;5094127;28;20046;-71
2022/11/24 05:01:43;;;;;;;13.32;2.53;;;9.40;99.90;;;;;;5094088;28;20031;-71
2022/11/24 05:04:10;;;;;;;9.57;2.40;;;9.40;99.90;;;;;;5094070;28;20024;-71
2022/11/24 05:06:36;;;;;;;11.45;2.53;;;9.40;99.90;;;;;;5094867;28;20019;-71
2022/11/24 05:09:03;;;;;;;9.00;2.33;;;9.40;99.90;;;;;;5093793;28;20028;-72
2022/11/24 05:11:29;;;;;;;12.95;2.28;;;9.50;99.90;;;;;;5075828;28;20040;-71
2022/11/24 05:13:54;;;;;;;9.20;2.47;;;9.40;99.90;;;;;;5075749;28;20507;-71
2022/11/24 05:16:20;;;;;;;4.22;1.85;;;9.30;99.90;;;;;;5075810;28;20081;-73
2022/11/24 05:18:46;;;;;;;7.95;2.20;;;9.40;99.90;;;;;;5094102;28;20028;-72
2022/11/24 05:21:11;;;;;;;11.95;2.28;;;9.30;99.90;;;;;;5093768;28;20787;-72
2022/11/24 05:23:37;;;;;;;9.90;2.67;;;9.20;99.90;;;;;;5075924;28;20089;-72
2022/11/24 05:26:03;;;;;;;7.18;1.90;;;9.20;99.90;;;;;;5093375;28;20028;-72
2022/11/24 05:28:29;;;;;;;7.32;1.88;;;9.10;99.90;;;;;;5093445;28;20063;-72
2022/11/24 05:31:02;;;;;;;7.18;2.40;;;9.10;99.90;;;;;;5093937;28;20047;-71
2022/11/24 05:33:29;;;;;;;8.82;1.83;;;9.00;99.90;;;;;;5074802;28;20029;-71
2022/11/24 05:35:59;;;;;;;6.68;2.15;;;8.90;99.90;;;;;;5093536;28;20158;-72
2022/11/24 05:38:25;;;;;;;9.88;2.28;;;8.90;99.90;;;;;;5093322;28;20481;-72
2022/11/24 05:40:51;;;;;;;5.50;2.25;;;8.90;99.90;;;;;;5075467;28;20036;-73
2022/11/24 05:43:17;;;;;;;13.95;3.83;;;8.80;99.90;;;;;;5075429;28;20339;-72
2022/11/24 05:45:43;;;;;;;9.43;2.78;;;8.80;99.90;;;;;;5075725;28;20043;-71
2022/11/24 05:48:12;;;;;;;7.07;2.10;;;8.70;99.90;;;;;;5093295;28;20032;-72
2022/11/24 05:50:38;;;;;;;9.13;2.45;;;8.70;99.90;;;;;;5093342;28;20177;-73
2022/11/24 05:53:09;;;;;;;7.00;1.63;;;8.70;99.90;;;;;;5075204;28;20114;-73
2022/11/24 05:55:36;;;;;;;14.40;2.65;;;8.70;99.90;;;;;;5093146;28;20056;-72
2022/11/24 05:58:04;;;;;;;13.60;2.50;;;8.60;99.90;;;;;;5093965;28;20112;-72
2022/11/24 06:00:31;;;;;;;7.13;1.88;;;8.60;99.90;;;;;;5092994;28;20043;-72
2022/11/24 06:02:57;;;;;;;4.38;2.33;;;8.50;99.90;;;;;;5075269;28;20115;-72
2022/11/24 06:05:23;;;;;;;9.48;2.47;;;8.50;99.90;;;;;;5093185;28;20032;-72
2022/11/24 06:07:49;;;;;;;10.40;2.78;;;8.50;99.90;;;;;;5092964;28;20047;-72
2022/11/24 06:10:16;;;;;;;8.07;2.10;;;8.50;99.90;;;;;;5092548;28;20028;-70
2022/11/24 06:12:42;;;;;;;10.15;2.50;;;8.50;99.90;;;;;;5093255;28;20012;-72
2022/11/24 06:15:10;;;;;;;12.15;2.78;;;8.60;99.90;;;;;;5074797;28;20124;-72
2022/11/24 06:17:36;;;;;;;10.07;2.83;;;8.60;99.90;;;;;;5092562;28;20481;-70
2022/11/24 06:20:02;;;;;;;16.88;2.50;;;8.70;99.90;;;;;;5092499;28;20051;-72
2022/11/24 06:22:27;;;;;;;12.07;3.05;;;8.70;99.90;;;;;;5092504;28;20028;-72
2022/11/24 06:24:53;;;;;;;19.10;2.80;;;8.70;99.90;;;;;;5093102;28;20266;-71
2022/11/24 06:27:19;;;;;;;11.68;3.00;;;8.60;99.90;;;;;;5092589;28;20032;-71
2022/11/24 06:29:45;;;;;;;15.55;2.80;;;8.60;99.90;;;;;;5074463;28;20028;-72
2022/11/24 06:32:10;;;;;;;12.85;2.60;;;8.60;99.90;;;;;;5092565;28;20475;-73
2022/11/24 06:34:36;;;;;;;13.40;3.30;;;8.60;99.90;;;;;;5092475;28;20029;-73
2022/11/24 06:37:01;;;;;;;14.93;2.72;;;8.60;99.90;;;;;;5092946;28;20059;-71
2022/11/24 06:39:27;;;;;;;9.85;2.78;;;8.70;99.90;;;;;;5092284;28;20127;-71
2022/11/24 06:41:53;;;;;;;15.63;2.72;;;8.70;99.90;;;;;;5092213;28;20428;-73
2022/11/24 06:44:19;;;;;;;9.70;2.80;;;8.70;99.90;;;;;;5074020;28;20127;-71
2022/11/24 06:46:45;;;;;;;10.13;2.80;;;8.70;99.90;;;;;;5091566;28;20031;-71
2022/11/24 06:49:10;;;;;;;19.77;3.85;;;8.80;99.90;;;;;;5091706;28;20020;-72
2022/11/24 06:51:36;;;;;;;12.65;3.03;;;8.80;99.90;;;;;;5092265;28;20020;-72
2022/11/24 06:54:06;;;;;;;12.07;4.78;;;8.80;99.90;;;;;;5073964;28;20423;-72
2022/11/24 06:56:31;;;;;;;18.45;2.97;;;8.80;99.90;;;;;;5092139;28;20032;-71
2022/11/24 06:58:58;;;;;;;11.73;3.25;;;8.80;99.90;;;;;;5092049;28;20477;-72
2022/11/24 07:01:26;;;;;;;11.60;3.05;;;8.90;99.90;;;;;;5074013;28;20032;-73
2022/11/24 07:03:52;;;;;;;15.40;3.00;;;8.90;99.90;;;;;;5092477;28;20020;-71
2022/11/24 07:06:19;;;;;;;11.88;3.33;;;8.90;99.90;;;;;;5091353;28;20028;-72
2022/11/24 07:08:46;;;;;;;16.95;3.20;;;8.90;99.90;;;;;;5091700;28;20461;-70
2022/11/24 07:11:15;;;;;;;18.02;4.32;;;9.00;99.90;;;;;;5091865;28;20422;-72
2022/11/24 07:13:44;;;;;;;15.70;2.75;;;9.00;99.90;;;;;;5092121;28;20182;-71
2022/11/24 07:16:14;;;;;;;16.17;3.03;;;9.00;99.90;;;;;;5091625;28;20031;-71
2022/11/24 07:18:40;;;;;;;11.50;3.35;;;9.00;99.90;;;;;;5091787;28;20028;-73
2022/11/24 07:21:06;;;;;;;14.63;3.33;;;9.00;99.90;;;;;;5091874;28;20048;-72
2022/11/24 07:23:32;;;;;;;8.95;2.22;;;9.00;99.90;;;;;;5073673;28;20024;-73
2022/11/24 07:25:58;;;;;;;16.90;3.30;;;9.10;99.90;;;;;;5091699;28;20029;-72
2022/11/24 07:28:24;;;;;;;12.05;2.83;;;9.10;99.90;;;;;;5091771;28;20364;-74
2022/11/24 07:30:49;;;;;;;15.82;3.28;;;9.20;99.90;;;;;;5092392;28;20069;-73
2022/11/24 07:33:18;;;;;;;8.65;2.67;;;9.10;99.90;;;;;;5073646;28;20024;-72
2022/11/24 07:35:44;;;;;;;12.70;2.42;;;9.20;99.90;;;;;;5091292;28;20028;-68
2022/11/24 07:38:09;;;;;;;11.55;2.72;;;9.20;99.90;;;;;;5091270;28;20484;-69
2022/11/24 07:40:35;;;;;;;10.70;3.15;;;9.20;99.90;;;;;;5091403;28;20107;-70
2022/11/24 07:43:01;;;;;;;7.47;2.65;;;9.20;99.90;;;;;;5092299;28;20020;-73
2022/11/24 07:45:27;;;;;;;12.93;2.65;;;9.30;99.90;;;;;;5091146;28;20060;-72
2022/11/24 07:47:52;;;;;;;16.45;3.10;;;9.30;99.90;;;;;;5073709;28;20028;-70
2022/11/24 07:50:19;;;;;;;14.48;2.88;;;9.30;99.90;;;;;;5091193;28;20046;-70
2022/11/24 07:52:45;;;;;;;7.53;2.40;;;9.30;99.90;;;;;;5091387;28;20054;-71
2022/11/24 07:55:10;;;;;;;13.27;3.03;;;9.40;99.90;;;;;;5073282;28;20064;-71
2022/11/24 07:57:36;;;;;;;15.13;2.60;;;9.40;99.90;;;;;;5076219;28;20019;-69
2022/11/24 08:00:04;;;;;;;25.45;3.10;;;9.40;99.90;;;;;;5095631;28;20505;-71
2022/11/24 08:02:31;;;;;;;17.23;2.72;;;9.50;99.90;;;;;;5095461;28;20043;-73
2022/11/24 08:04:56;;;;;;;12.43;2.58;;;9.50;99.90;;;;;;5077499;28;20377;-74
2022/11/24 08:07:22;;;;;;;15.75;2.88;;;9.50;99.90;;;;;;5095399;28;20457;-74
2022/11/24 08:09:49;;;;;;;14.15;3.33;;;9.50;99.90;;;;;;5095773;28;20020;-72
2022/11/24 08:12:16;;;;;;;12.45;2.85;;;9.60;99.90;;;;;;5095467;28;20028;-72
2022/11/24 08:14:42;;;;;;;12.05;3.42;;;9.60;99.90;;;;;;5095967;28;20024;-75
2022/11/24 08:17:07;;;;;;;12.20;3.13;;;9.70;99.90;;;;;;5074023;28;20033;-78
2022/11/24 08:19:33;;;;;;;16.65;5.30;;;9.60;99.90;;;;;;5075881;28;20051;-73
2022/11/24 08:21:59;;;;;;;15.07;4.05;;;9.70;99.90;;;;;;5059182;28;20032;-74
2022/11/24 08:24:26;;;;;;;15.95;4.68;;;9.70;99.90;;;;;;5058359;28;20051;-74
2022/11/24 08:26:52;;;;;;;16.00;3.63;;;9.70;99.90;;;;;;5075991;28;20029;-72
2022/11/24 08:29:17;;;;;;;15.63;3.70;;;9.70;99.90;;;;;;5057396;28;20043;-72
2022/11/24 08:31:43;;;;;;;22.63;4.97;;;9.70;99.90;;;;;;5075131;28;20044;-74
2022/11/24 08:34:09;;;;;;;16.02;3.75;;;9.80;99.90;;;;;;5057751;28;20043;-73
2022/11/24 08:36:35;;;;;;;15.38;3.80;;;9.80;99.90;;;;;;5075047;28;20020;-71
2022/11/24 08:39:01;;;;;;;22.20;5.97;;;9.80;99.90;;;;;;5056733;28;20035;-72
2022/11/24 08:41:28;;;;;;;21.73;3.60;;;9.80;99.90;;;;;;5075020;28;20094;-72
2022/11/24 08:43:54;;;;;;;18.60;4.35;;;9.90;99.90;;;;;;5074912;28;20071;-72
2022/11/24 08:46:20;;;;;;;8.82;2.45;;;9.90;99.90;;;;;;5074672;28;20479;-72
2022/11/24 08:48:51;;;;;;;16.67;3.38;;;9.90;99.90;;;;;;5057433;28;20039;-74
2022/11/24 08:51:19;;;;;;;16.58;3.03;;;10.00;99.90;;;;;;5074443;28;20041;-72
2022/11/24 08:53:45;;;;;;;15.82;3.20;;;10.00;99.90;;;;;;5074812;28;20102;-73
2022/11/24 08:56:12;;;;;;;17.48;3.28;;;10.00;99.90;;;;;;5073063;28;20028;-71
2022/11/24 08:58:38;;;;;;;18.17;2.45;;;10.10;99.90;;;;;;5056601;28;20365;-72
2022/11/24 09:01:10;;;;;;;9.75;2.55;;;10.10;99.90;;;;;;5074786;28;20108;-72
2022/11/24 09:03:37;;;;;;;11.15;3.38;;;10.20;99.90;;;;;;5074190;28;20037;-71
2022/11/24 09:06:03;;;;;;;21.42;3.28;;;10.20;99.90;;;;;;5075261;28;20386;-71
2022/11/24 09:08:29;;;;;;;16.02;2.95;;;10.30;99.90;;;;;;5073144;28;20120;-72
2022/11/24 09:11:04;;;;;;;13.93;2.85;;;10.30;99.90;;;;;;5091876;28;20100;-73
2022/11/24 09:13:30;;;;;;;14.68;2.90;;;10.40;99.90;;;;;;5116722;28;20046;-80
2022/11/24 09:15:56;;;;;;;20.75;3.53;;;10.40;99.90;;;;;;5099712;28;20024;-73
2022/11/24 09:18:21;;;;;;;14.38;2.95;;;10.40;99.90;;;;;;5097537;28;20099;-72
2022/11/24 09:20:48;;;;;;;11.07;2.58;;;10.50;99.90;;;;;;5114475;28;20096;-74
2022/11/24 09:23:14;;;;;;;11.18;2.67;;;10.60;99.90;;;;;;5096319;28;20054;-76
2022/11/24 09:25:39;;;;;;;19.30;3.85;;;10.70;99.90;;;;;;5096137;28;20433;-74
2022/11/24 09:28:05;;;;;;;14.85;3.35;;;10.90;99.90;;;;;;5096698;28;20110;-74
2022/11/24 09:30:31;;;;;;;15.13;2.47;;;10.90;99.90;;;;;;5096033;28;20042;-76
2022/11/24 09:32:57;;;;;;;10.95;2.60;;;11.10;99.90;;;;;;5114276;28;20031;-72
2022/11/24 09:35:23;;;;;;;9.85;2.45;;;11.10;99.90;;;;;;5112591;28;20036;-74
2022/11/24 09:37:50;;;;;;;20.25;5.03;;;11.00;99.90;;;;;;5093581;28;20423;-75
2022/11/24 09:40:16;;;;;;;14.88;3.55;;;11.10;99.90;;;;;;5093308;28;20082;-72
2022/11/24 09:43:32;;;;;;;14.98;2.88;;;11.20;99.90;;;;;;5093709;28;20073;-72
2022/11/24 09:46:04;;;;;;;18.50;3.15;;;11.20;99.90;;;;;;5090018;28;20068;-74
2022/11/24 09:48:36;;;;;;;17.17;3.30;;;11.20;99.90;;;;;;5093181;28;20028;-74
2022/11/24 09:51:03;;;;;;;16.90;2.95;;;11.30;99.90;;;;;;5093052;28;20145;-74
2022/11/24 09:53:58;;;;;;;18.88;2.95;;;11.30;99.80;;;;;;5093045;28;20093;-75
2022/11/24 09:56:26;;;;;;;10.48;2.72;;;11.30;99.70;;;;;;5092901;28;20044;-74
2022/11/24 09:59:12;;;;;;;14.38;2.55;;;11.40;99.80;;;;;;5075075;28;20485;-75
2022/11/24 10:01:41;;;;;;;16.25;2.85;;;11.40;99.70;;;;;;5093342;28;20453;-74
2022/11/24 10:04:24;;;;;;;16.70;2.65;;;11.50;99.70;;;;;;5093959;28;20026;-74
2022/11/24 10:07:05;;;;;;;11.48;2.75;;;11.40;99.70;;;;;;5092906;28;20039;-73
2022/11/24 10:09:55;;;;;;;6.50;1.83;;;11.50;99.70;;;;;;5092757;28;20085;-73
2022/11/24 10:12:32;;;;;;;11.65;3.10;;;11.40;99.60;;;;;;5092729;28;20052;-75
2022/11/24 10:15:35;;;;;;;6.70;2.03;;;11.50;99.60;;;;;;5074601;28;20102;-74
2022/11/24 10:18:26;;;;;;;19.90;3.10;;;11.50;99.70;;;;;;5092856;28;20029;-72
2022/11/24 10:21:15;;;;;;;14.98;3.58;;;11.60;99.70;;;;;;5092406;28;20047;-76
2022/11/24 10:24:02;;;;;;;11.60;2.35;;;11.60;99.70;;;;;;5092254;28;20479;-74
2022/11/24 10:26:37;;;;;;;18.90;3.33;;;11.70;99.70;;;;;;5092120;28;20047;-73
2022/11/24 10:29:29;;;;;;;9.60;2.45;;;11.80;99.60;;;;;;5092897;28;20032;-73
2022/11/24 10:31:55;;;;;;;17.92;3.22;;;11.80;99.50;;;;;;5087683;28;20119;-73
2022/11/24 10:34:40;;;;;;;14.30;3.10;;;11.80;99.30;;;;;;5092235;28;20048;-71
2022/11/24 10:37:19;;;;;;;20.40;2.97;;;12.00;99.50;;;;;;5092733;28;20079;-72
2022/11/24 10:39:50;;;;;;;12.73;2.97;;;12.00;99.40;;;;;;5092181;28;20473;-72
2022/11/24 10:42:36;;;;;;;20.77;3.55;;;12.10;99.30;;;;;;5074053;28;20461;-74
2022/11/24 10:45:11;;;;;;;13.52;3.38;;;12.20;99.20;;;;;;5091709;28;20404;-73
2022/11/24 10:47:37;;;;;;;20.38;3.00;;;12.30;99.00;;;;;;5091605;28;20029;-72
2022/11/24 10:50:18;;;;;;;17.23;3.63;;;12.30;98.90;;;;;;5091733;28;20036;-72
2022/11/24 10:52:50;;;;;;;15.85;2.75;;;12.40;98.90;;;;;;5073816;28;20029;-72
2022/11/24 10:55:15;;;;;;;20.85;2.70;;;12.60;98.80;;;;;;5073852;28;20303;-72
2022/11/24 10:57:42;;;;;;;17.98;3.55;;;12.60;98.40;;;;;;5092204;28;20016;-73
2022/11/24 11:00:17;;;;;;;11.48;2.90;;;12.70;98.50;;;;;;5091585;28;20032;-72
2022/11/24 11:02:43;;;;;;;13.55;2.97;;;12.90;98.10;;;;;;5091565;28;20127;-74
2022/11/24 11:05:31;;;;;;;18.40;3.67;;;13.10;98.20;;;;;;5091666;28;20113;-73
2022/11/24 11:08:18;;;;;;;15.80;3.38;;;13.10;97.60;;;;;;5091364;28;20466;-73
2022/11/24 11:10:45;;;;;;;16.75;3.42;;;13.10;97.80;;;;;;5091294;28;20040;-73
2022/11/24 11:13:24;;;;;;;14.00;3.40;;;13.10;97.50;;;;;;5073600;28;20081;-72
2022/11/24 11:15:50;;;;;;;13.20;3.30;;;13.10;97.60;;;;;;5091640;28;20101;-73
2022/11/24 11:18:18;;;;;;;11.00;3.00;;;13.20;97.20;;;;;;5090886;28;20521;-72
2022/11/24 11:20:55;;;;;;;12.45;3.28;;;13.60;97.00;;;;;;5091618;28;20090;-73
2022/11/24 11:23:34;;;;;;;18.25;3.10;;;13.60;96.70;;;;;;5090332;28;20028;-70
2022/11/24 11:26:26;;;;;;;17.15;3.28;;;13.60;96.40;;;;;;5073353;28;20027;-71
2022/11/24 11:29:07;;;;;;;12.35;2.72;;;13.60;96.40;;;;;;5091330;28;20107;-72
2022/11/24 11:31:34;;;;;;;18.13;3.38;;;13.40;96.70;;;;;;5090456;28;20039;-72
2022/11/24 11:34:09;;;;;;;23.42;3.90;;;13.40;96.40;;;;;;5091889;28;20028;-73
2022/11/24 11:36:38;;;;;;;17.08;3.15;;;13.30;96.70;;;;;;5091612;28;20462;-72
2022/11/24 11:39:04;;;;;;;20.75;4.25;;;13.10;96.90;;;;;;5091403;28;20071;-74
2022/11/24 11:41:39;;;;;;;14.32;2.88;;;13.10;96.90;;;;;;5091151;28;20100;-73
2022/11/24 11:44:34;;;;;;;11.13;3.42;;;13.00;97.20;;;;;;5090966;28;20048;-75
2022/11/24 11:47:07;;;;;;;11.68;4.03;;;13.10;97.00;;;;;;5053629;28;20508;-72
2022/11/24 11:49:36;;;;;;;14.32;2.88;;;12.90;97.00;;;;;;5073418;28;20047;-73
2022/11/24 11:52:17;;;;;;;21.20;3.58;;;12.80;96.80;;;;;;5073711;28;20023;-76
2022/11/24 11:55:07;;;;;;;19.17;3.13;;;12.80;97.30;;;;;;5091299;28;20036;-74
2022/11/24 11:57:53;;;;;;;14.48;3.35;;;12.90;97.20;;;;;;5091031;28;20032;-74
2022/11/24 12:00:20;;;;;;;12.02;3.20;;;13.00;97.10;;;;;;5091063;28;20488;-75
2022/11/24 12:03:02;;;;;;;8.67;2.60;;;13.00;96.90;;;;;;5073746;28;20043;-76
2022/11/24 12:05:39;;;;;;;10.60;3.13;;;12.90;96.60;;;;;;5091737;28;20051;-77
2022/11/24 12:08:08;;;;;;;12.07;2.80;;;13.00;96.80;;;;;;5091194;28;20035;-75
2022/11/24 12:10:58;;;;;;;19.65;3.22;;;13.00;96.70;;;;;;5073078;28;20097;-74
2022/11/24 12:14:02;;;;;;;11.07;2.92;;;13.00;96.50;;;;;;5091148;28;20028;-77
2022/11/24 12:16:48;;;;;;;14.95;2.80;;;13.10;96.60;;;;;;5091295;28;20057;-76
2022/11/24 12:19:40;;;;;;;15.70;3.00;;;13.00;96.60;;;;;;5090770;28;20024;-75
2022/11/24 12:22:12;;;;;;;8.93;2.15;;;12.90;96.60;;;;;;5091744;28;20020;-76
2022/11/24 12:24:43;;;;;;;16.35;3.25;;;12.90;96.60;;;;;;5091366;28;20481;-78
2022/11/24 12:27:51;;;;;;;13.38;2.10;;;12.90;96.50;;;;;;5091016;28;20039;-80
2022/11/24 12:30:19;;;;;;;11.80;2.70;;;12.70;96.50;;;;;;5064448;28;20478;-73
2022/11/24 12:33:24;;;;;;;14.50;5.30;;;12.60;96.90;;;;;;5090598;28;20036;-72
2022/11/24 12:36:03;;;;;;;11.35;3.22;;;12.60;97.00;;;;;;5090804;28;20100;-70
2022/11/24 12:39:01;;;;;;;10.23;3.15;;;12.60;96.90;;;;;;5072739;28;20047;-74
2022/11/24 12:41:27;;;;;;;17.45;2.60;;;12.60;96.90;;;;;;5066611;28;20374;-73
2022/11/24 12:43:56;;;;;;;12.88;2.15;;;12.70;96.90;;;;;;5090781;28;20044;-73
2022/11/24 12:46:53;;;;;;;10.00;2.05;;;12.80;96.70;;;;;;5094381;28;20050;-74
2022/11/24 12:49:49;;;;;;;13.27;2.40;;;12.90;96.90;;;;;;5076150;28;20031;-73
2022/11/24 12:52:29;;;;;;;8.90;2.05;;;12.90;96.70;;;;;;5094195;28;20469;-72
2022/11/24 12:54:56;;;;;;;9.90;2.45;;;13.00;96.60;;;;;;5076868;28;20433;-72
2022/11/24 12:57:43;;;;;;;18.58;2.78;;;12.90;96.30;;;;;;5094288;28;20025;-72
2022/11/24 13:00:22;;;;;;;9.20;2.08;;;12.80;96.60;;;;;;5094455;28;20056;-75
2022/11/24 13:03:15;;;;;;;8.68;1.85;;;12.80;96.50;;;;;;5094482;28;20067;-74